sensor_id;sensor_type;location;lat;lon;timestamp;temperature;humidity
55369;DHT22;41247;49.736;8.752;2024-01-15T00:03:09;-4.30;99.90
55369;DHT22;41247;49.736;8.752;2024-01-15T00:06:50;-4.30;99.90
55369;DHT22;41247;49.736;8.752;2024-01-15T00:10:30;-4.30;99.90
55369;DHT22;41247;49.736;8.752;2024-01-15T00:14:11;-4.30;99.90
55369;DHT22;41247;49.736;8.752;2024-01-15T00:17:52;-4.20;99.90
55369;DHT22;41247;49.736;8.752;2024-01-15T00:21:32;-4.20;99.90
55369;DHT22;41247;49.736;8.752;2024-01-15T00:25:13;-4.20;99.90
55369;DHT22;41247;49.736;8.752;2024-01-15T00:28:53;-4.20;99.90
55369;DHT22;41247;49.736;8.752;2024-01-15T00:32:36;-4.20;99.90
55369;DHT22;41247;49.736;8.752;2024-01-15T00:36:16;-4.20;99.90
55369;DHT22;41247;49.736;8.752;2024-01-15T00:39:57;-4.20;99.90
55369;DHT22;41247;49.736;8.752;2024-01-15T00:43:38;-4.20;99.90
55369;DHT22;41247;49.736;8.752;2024-01-15T00:47:18;-4.20;99.90
55369;DHT22;41247;49.736;8.752;2024-01-15T00:50:59;-4.20;99.90
55369;DHT22;41247;49.736;8.752;2024-01-15T00:54:40;-4.20;99.90
55369;DHT22;41247;49.736;8.752;2024-01-15T00:58:20;-4.20;99.90
55369;DHT22;41247;49.736;8.752;2024-01-15T01:02:01;-4.20;99.90
55369;DHT22;41247;49.736;8.752;2024-01-15T01:05:41;-4.20;99.90
55369;DHT22;41247;49.736;8.752;2024-01-15T01:09:22;-4.20;99.90
55369;DHT22;41247;49.736;8.752;2024-01-15T01:13:03;-4.10;99.90
55369;DHT22;41247;49.736;8.752;2024-01-15T01:16:43;-4.10;99.90
55369;DHT22;41247;49.736;8.752;2024-01-15T01:20:24;-4.10;99.90
55369;DHT22;41247;49.736;8.752;2024-01-15T01:24:05;-4.10;99.90
55369;DHT22;41247;49.736;8.752;2024-01-15T01:27:45;-4.10;99.90
55369;DHT22;41247;49.736;8.752;2024-01-15T01:31:26;-4.10;99.90
55369;DHT22;41247;49.736;8.752;2024-01-15T01:35:07;-4.00;99.90
55369;DHT22;41247;49.736;8.752;2024-01-15T01:38:47;-4.00;99.90
55369;DHT22;41247;49.736;8.752;2024-01-15T01:42:28;-4.00;99.90
55369;DHT22;41247;49.736;8.752;2024-01-15T01:46:09;-3.90;99.90
55369;DHT22;41247;49.736;8.752;2024-01-15T01:49:49;-3.90;99.90
55369;DHT22;41247;49.736;8.752;2024-01-15T01:53:32;-3.80;99.90
55369;DHT22;41247;49.736;8.752;2024-01-15T01:57:16;-3.80;99.90
55369;DHT22;41247;49.736;8.752;2024-01-15T02:00:58;-3.80;99.90
55369;DHT22;41247;49.736;8.752;2024-01-15T02:04:39;-3.80;99.90
55369;DHT22;41247;49.736;8.752;2024-01-15T02:08:20;-3.70;99.90
55369;DHT22;41247;49.736;8.752;2024-01-15T02:12:01;-3.70;99.90
55369;DHT22;41247;49.736;8.752;2024-01-15T02:15:42;-3.70;99.90
55369;DHT22;41247;49.736;8.752;2024-01-15T02:19:22;-3.70;99.90
55369;DHT22;41247;49.736;8.752;2024-01-15T02:23:11;-3.70;99.90
55369;DHT22;41247;49.736;8.752;2024-01-15T02:26:52;-3.60;99.90
55369;DHT22;41247;49.736;8.752;2024-01-15T02:30:35;-3.60;99.90
55369;DHT22;41247;49.736;8.752;2024-01-15T02:34:17;-3.50;99.90
55369;DHT22;41247;49.736;8.752;2024-01-15T02:37:58;-3.50;99.90
55369;DHT22;41247;49.736;8.752;2024-01-15T02:41:38;-3.50;99.90
55369;DHT22;41247;49.736;8.752;2024-01-15T02:45:19;-3.50;99.90
55369;DHT22;41247;49.736;8.752;2024-01-15T02:49:01;-3.40;99.90
55369;DHT22;41247;49.736;8.752;2024-01-15T02:52:42;-3.40;99.90
55369;DHT22;41247;49.736;8.752;2024-01-15T02:56:22;-3.40;99.90
55369;DHT22;41247;49.736;8.752;2024-01-15T03:00:03;-3.40;99.90
55369;DHT22;41247;49.736;8.752;2024-01-15T03:03:44;-3.40;99.90
55369;DHT22;41247;49.736;8.752;2024-01-15T03:07:25;-3.30;99.90
55369;DHT22;41247;49.736;8.752;2024-01-15T03:11:06;-3.30;99.90
55369;DHT22;41247;49.736;8.752;2024-01-15T03:14:46;-3.30;99.90
55369;DHT22;41247;49.736;8.752;2024-01-15T03:18:27;-3.30;99.90
55369;DHT22;41247;49.736;8.752;2024-01-15T03:22:07;-3.30;99.90
55369;DHT22;41247;49.736;8.752;2024-01-15T03:25:48;-3.30;99.90
55369;DHT22;41247;49.736;8.752;2024-01-15T03:29:29;-3.30;99.90
55369;DHT22;41247;49.736;8.752;2024-01-15T03:33:09;-3.30;99.90
55369;DHT22;41247;49.736;8.752;2024-01-15T03:36:50;-3.20;99.90
55369;DHT22;41247;49.736;8.752;2024-01-15T03:40:30;-3.20;99.90
55369;DHT22;41247;49.736;8.752;2024-01-15T03:44:11;-3.20;99.90
55369;DHT22;41247;49.736;8.752;2024-01-15T03:47:51;-3.20;99.90
55369;DHT22;41247;49.736;8.752;2024-01-15T03:51:32;-3.20;99.90
55369;DHT22;41247;49.736;8.752;2024-01-15T03:55:13;-3.20;99.90
55369;DHT22;41247;49.736;8.752;2024-01-15T03:58:53;-3.20;99.90
55369;DHT22;41247;49.736;8.752;2024-01-15T04:02:34;-3.20;99.90
55369;DHT22;41247;49.736;8.752;2024-01-15T04:06:14;-3.10;99.90
55369;DHT22;41247;49.736;8.752;2024-01-15T04:09:55;-3.20;99.90
55369;DHT22;41247;49.736;8.752;2024-01-15T04:13:36;-3.20;99.90
55369;DHT22;41247;49.736;8.752;2024-01-15T04:17:16;-3.20;99.90
55369;DHT22;41247;49.736;8.752;2024-01-15T04:20:57;-3.20;99.90
55369;DHT22;41247;49.736;8.752;2024-01-15T04:24:37;-3.20;99.90
55369;DHT22;41247;49.736;8.752;2024-01-15T04:28:18;-3.20;99.90
55369;DHT22;41247;49.736;8.752;2024-01-15T04:31:58;-3.20;99.90
55369;DHT22;41247;49.736;8.752;2024-01-15T04:35:39;-3.20;99.90
55369;DHT22;41247;49.736;8.752;2024-01-15T04:39:20;-3.20;99.90
55369;DHT22;41247;49.736;8.752;2024-01-15T04:43:00;-3.20;99.90
55369;DHT22;41247;49.736;8.752;2024-01-15T04:46:41;-3.20;99.90
55369;DHT22;41247;49.736;8.752;2024-01-15T04:50:21;-3.20;99.90
55369;DHT22;41247;49.736;8.752;2024-01-15T04:54:02;-3.20;99.90
55369;DHT22;41247;49.736;8.752;2024-01-15T04:57:43;-3.20;99.90
55369;DHT22;41247;49.736;8.752;2024-01-15T05:01:23;-3.20;99.90
55369;DHT22;41247;49.736;8.752;2024-01-15T05:05:04;-3.20;99.90
55369;DHT22;41247;49.736;8.752;2024-01-15T05:08:44;-3.20;99.90
55369;DHT22;41247;49.736;8.752;2024-01-15T05:12:25;-3.20;99.90
55369;DHT22;41247;49.736;8.752;2024-01-15T05:16:06;-3.20;99.90
55369;DHT22;41247;49.736;8.752;2024-01-15T05:19:46;-3.20;99.90
55369;DHT22;41247;49.736;8.752;2024-01-15T05:23:27;-3.20;99.90
55369;DHT22;41247;49.736;8.752;2024-01-15T05:27:07;-3.20;99.90
55369;DHT22;41247;49.736;8.752;2024-01-15T05:30:48;-3.20;99.90
55369;DHT22;41247;49.736;8.752;2024-01-15T05:34:29;-3.20;99.90
55369;DHT22;41247;49.736;8.752;2024-01-15T05:38:09;-3.20;99.90
55369;DHT22;41247;49.736;8.752;2024-01-15T05:41:50;-3.10;99.90
55369;DHT22;41247;49.736;8.752;2024-01-15T05:45:31;-3.10;99.90
55369;DHT22;41247;49.736;8.752;2024-01-15T05:49:11;-3.10;99.90
55369;DHT22;41247;49.736;8.752;2024-01-15T05:52:52;-3.10;99.90
55369;DHT22;41247;49.736;8.752;2024-01-15T05:56:32;-3.10;99.90
55369;DHT22;41247;49.736;8.752;2024-01-15T06:00:13;-3.10;99.90
55369;DHT22;41247;49.736;8.752;2024-01-15T06:03:54;-3.10;99.90
55369;DHT22;41247;49.736;8.752;2024-01-15T06:07:36;-3.10;99.90
55369;DHT22;41247;49.736;8.752;2024-01-15T06:11:17;-3.10;99.90
55369;DHT22;41247;49.736;8.752;2024-01-15T06:14:58;-3.10;99.90
55369;DHT22;41247;49.736;8.752;2024-01-15T06:18:38;-3.10;99.90
55369;DHT22;41247;49.736;8.752;2024-01-15T06:22:19;-3.10;99.90
55369;DHT22;41247;49.736;8.752;2024-01-15T06:26:00;-3.10;99.90
55369;DHT22;41247;49.736;8.752;2024-01-15T06:29:45;-3.10;99.90
55369;DHT22;41247;49.736;8.752;2024-01-15T06:33:26;-3.10;99.90
55369;DHT22;41247;49.736;8.752;2024-01-15T06:37:06;-3.00;99.90
55369;DHT22;41247;49.736;8.752;2024-01-15T06:40:47;-3.00;99.90
55369;DHT22;41247;49.736;8.752;2024-01-15T06:44:27;-3.00;99.90
55369;DHT22;41247;49.736;8.752;2024-01-15T06:48:08;-2.90;99.90
55369;DHT22;41247;49.736;8.752;2024-01-15T06:51:49;-2.90;99.90
55369;DHT22;41247;49.736;8.752;2024-01-15T06:55:29;-2.90;99.90
55369;DHT22;41247;49.736;8.752;2024-01-15T06:59:10;-2.90;99.90
55369;DHT22;41247;49.736;8.752;2024-01-15T07:02:50;-2.90;99.90
55369;DHT22;41247;49.736;8.752;2024-01-15T07:06:31;-2.80;99.90
55369;DHT22;41247;49.736;8.752;2024-01-15T07:10:12;-2.70;99.90
55369;DHT22;41247;49.736;8.752;2024-01-15T07:13:52;-2.70;99.90
55369;DHT22;41247;49.736;8.752;2024-01-15T07:17:33;-2.60;99.90
55369;DHT22;41247;49.736;8.752;2024-01-15T07:21:14;-2.60;99.90
55369;DHT22;41247;49.736;8.752;2024-01-15T07:24:56;-2.60;99.90
55369;DHT22;41247;49.736;8.752;2024-01-15T07:28:36;-2.60;99.90
55369;DHT22;41247;49.736;8.752;2024-01-15T07:32:17;-2.60;99.90
55369;DHT22;41247;49.736;8.752;2024-01-15T07:35:58;-2.60;99.90
55369;DHT22;41247;49.736;8.752;2024-01-15T07:39:39;-2.60;99.90
55369;DHT22;41247;49.736;8.752;2024-01-15T07:43:19;-2.60;99.90
55369;DHT22;41247;49.736;8.752;2024-01-15T07:47:00;-2.50;99.90
55369;DHT22;41247;49.736;8.752;2024-01-15T07:50:41;-2.50;99.90
55369;DHT22;41247;49.736;8.752;2024-01-15T07:54:21;-2.50;99.90
55369;DHT22;41247;49.736;8.752;2024-01-15T07:58:02;-2.50;99.90
55369;DHT22;41247;49.736;8.752;2024-01-15T08:01:42;-2.50;99.90
55369;DHT22;41247;49.736;8.752;2024-01-15T08:05:23;-2.50;99.90
55369;DHT22;41247;49.736;8.752;2024-01-15T08:09:04;-2.50;99.90
55369;DHT22;41247;49.736;8.752;2024-01-15T08:12:44;-2.50;99.90
55369;DHT22;41247;49.736;8.752;2024-01-15T08:16:25;-2.40;99.90
55369;DHT22;41247;49.736;8.752;2024-01-15T08:20:06;-2.40;99.90
55369;DHT22;41247;49.736;8.752;2024-01-15T08:23:46;-2.30;99.90
55369;DHT22;41247;49.736;8.752;2024-01-15T08:27:27;-2.20;99.90
55369;DHT22;41247;49.736;8.752;2024-01-15T08:31:09;-2.20;99.90
55369;DHT22;41247;49.736;8.752;2024-01-15T08:34:50;-2.10;99.90
55369;DHT22;41247;49.736;8.752;2024-01-15T08:38:30;-2.10;99.90
55369;DHT22;41247;49.736;8.752;2024-01-15T08:42:11;-2.00;99.90
55369;DHT22;41247;49.736;8.752;2024-01-15T08:45:51;-1.90;99.90
55369;DHT22;41247;49.736;8.752;2024-01-15T08:49:32;-1.90;99.90
55369;DHT22;41247;49.736;8.752;2024-01-15T08:53:13;-1.80;99.90
55369;DHT22;41247;49.736;8.752;2024-01-15T08:56:54;-1.80;99.90
55369;DHT22;41247;49.736;8.752;2024-01-15T09:00:34;-1.80;99.90
55369;DHT22;41247;49.736;8.752;2024-01-15T09:04:15;-1.80;99.90
55369;DHT22;41247;49.736;8.752;2024-01-15T09:07:56;-1.70;99.90
55369;DHT22;41247;49.736;8.752;2024-01-15T09:11:37;-1.70;99.90
55369;DHT22;41247;49.736;8.752;2024-01-15T09:15:17;-1.60;99.90
55369;DHT22;41247;49.736;8.752;2024-01-15T09:18:58;-1.60;99.90
55369;DHT22;41247;49.736;8.752;2024-01-15T09:22:38;-1.60;99.90
55369;DHT22;41247;49.736;8.752;2024-01-15T09:26:19;-1.50;99.90
55369;DHT22;41247;49.736;8.752;2024-01-15T09:30:00;-1.50;99.90
55369;DHT22;41247;49.736;8.752;2024-01-15T09:33:40;-1.50;99.90
55369;DHT22;41247;49.736;8.752;2024-01-15T09:37:21;-1.50;99.90
55369;DHT22;41247;49.736;8.752;2024-01-15T09:41:01;-1.60;99.90
55369;DHT22;41247;49.736;8.752;2024-01-15T09:44:42;-1.60;99.90
55369;DHT22;41247;49.736;8.752;2024-01-15T09:48:23;-1.60;99.90
55369;DHT22;41247;49.736;8.752;2024-01-15T09:52:04;-1.60;99.90
55369;DHT22;41247;49.736;8.752;2024-01-15T09:55:45;-1.60;99.90
55369;DHT22;41247;49.736;8.752;2024-01-15T09:59:26;-1.60;99.90
55369;DHT22;41247;49.736;8.752;2024-01-15T10:03:07;-1.60;99.90
55369;DHT22;41247;49.736;8.752;2024-01-15T10:06:51;-1.60;99.90
55369;DHT22;41247;49.736;8.752;2024-01-15T10:10:31;-1.60;99.90
55369;DHT22;41247;49.736;8.752;2024-01-15T10:14:12;-1.60;99.90
55369;DHT22;41247;49.736;8.752;2024-01-15T10:17:53;-1.60;99.90
55369;DHT22;41247;49.736;8.752;2024-01-15T10:21:34;-1.60;99.90
55369;DHT22;41247;49.736;8.752;2024-01-15T10:25:15;-1.60;99.90
55369;DHT22;41247;49.736;8.752;2024-01-15T10:28:57;-1.60;99.90
55369;DHT22;41247;49.736;8.752;2024-01-15T10:32:38;-1.60;99.90
55369;DHT22;41247;49.736;8.752;2024-01-15T10:36:20;-1.60;99.90
55369;DHT22;41247;49.736;8.752;2024-01-15T10:40:02;-1.60;99.90
55369;DHT22;41247;49.736;8.752;2024-01-15T10:43:43;-1.60;99.90
55369;DHT22;41247;49.736;8.752;2024-01-15T10:47:24;-1.60;99.90
55369;DHT22;41247;49.736;8.752;2024-01-15T10:51:05;-1.50;99.90
55369;DHT22;41247;49.736;8.752;2024-01-15T10:54:47;-1.50;99.90
55369;DHT22;41247;49.736;8.752;2024-01-15T10:58:30;-1.50;99.90
55369;DHT22;41247;49.736;8.752;2024-01-15T11:02:13;-1.50;99.90
55369;DHT22;41247;49.736;8.752;2024-01-15T11:05:54;-1.50;99.90
55369;DHT22;41247;49.736;8.752;2024-01-15T11:09:35;-1.50;99.90
55369;DHT22;41247;49.736;8.752;2024-01-15T11:17:12;-1.50;99.90
55369;DHT22;41247;49.736;8.752;2024-01-15T11:24:57;-1.60;99.90
55369;DHT22;41247;49.736;8.752;2024-01-15T11:28:48;-1.50;99.90
55369;DHT22;41247;49.736;8.752;2024-01-15T11:32:33;-1.50;99.90
55369;DHT22;41247;49.736;8.752;2024-01-15T11:36:14;-1.50;99.90
55369;DHT22;41247;49.736;8.752;2024-01-15T11:40:00;-1.50;99.90
55369;DHT22;41247;49.736;8.752;2024-01-15T11:43:42;-1.50;99.90
55369;DHT22;41247;49.736;8.752;2024-01-15T11:47:48;-1.40;99.90
55369;DHT22;41247;49.736;8.752;2024-01-15T11:51:52;-1.40;99.90
55369;DHT22;41247;49.736;8.752;2024-01-15T11:55:37;-1.30;99.90
55369;DHT22;41247;49.736;8.752;2024-01-15T11:59:19;-1.30;99.90
55369;DHT22;41247;49.736;8.752;2024-01-15T12:03:00;-1.10;99.90
55369;DHT22;41247;49.736;8.752;2024-01-15T12:06:40;-0.90;99.90
55369;DHT22;41247;49.736;8.752;2024-01-15T12:10:22;-0.90;99.90
55369;DHT22;41247;49.736;8.752;2024-01-15T12:14:03;-0.90;99.90
55369;DHT22;41247;49.736;8.752;2024-01-15T12:17:45;-0.90;99.90
55369;DHT22;41247;49.736;8.752;2024-01-15T12:21:28;-0.90;99.90
55369;DHT22;41247;49.736;8.752;2024-01-15T12:25:10;-0.70;99.90
55369;DHT22;41247;49.736;8.752;2024-01-15T12:28:51;-0.50;99.90
55369;DHT22;41247;49.736;8.752;2024-01-15T12:32:31;-0.30;99.90
55369;DHT22;41247;49.736;8.752;2024-01-15T12:36:13;-0.10;99.90
55369;DHT22;41247;49.736;8.752;2024-01-15T12:39:53;0.00;99.90
55369;DHT22;41247;49.736;8.752;2024-01-15T12:43:35;0.00;99.90
55369;DHT22;41247;49.736;8.752;2024-01-15T12:47:15;-0.10;99.90
55369;DHT22;41247;49.736;8.752;2024-01-15T12:50:56;-0.30;99.90
55369;DHT22;41247;49.736;8.752;2024-01-15T12:54:36;-0.40;99.90
55369;DHT22;41247;49.736;8.752;2024-01-15T12:58:17;-0.60;99.90
55369;DHT22;41247;49.736;8.752;2024-01-15T13:01:58;-0.70;99.90
55369;DHT22;41247;49.736;8.752;2024-01-15T13:05:38;-0.70;99.90
55369;DHT22;41247;49.736;8.752;2024-01-15T13:09:20;-0.70;99.90
55369;DHT22;41247;49.736;8.752;2024-01-15T13:13:00;-0.70;99.90
55369;DHT22;41247;49.736;8.752;2024-01-15T13:16:41;-0.70;99.90
55369;DHT22;41247;49.736;8.752;2024-01-15T13:20:22;-0.60;99.90
55369;DHT22;41247;49.736;8.752;2024-01-15T13:24:03;-0.60;99.90
55369;DHT22;41247;49.736;8.752;2024-01-15T13:27:43;-0.60;99.90
55369;DHT22;41247;49.736;8.752;2024-01-15T13:31:24;-0.50;99.90
55369;DHT22;41247;49.736;8.752;2024-01-15T13:35:05;-0.60;99.90
55369;DHT22;41247;49.736;8.752;2024-01-15T13:38:45;-0.60;99.90
55369;DHT22;41247;49.736;8.752;2024-01-15T13:42:26;-0.60;99.90
55369;DHT22;41247;49.736;8.752;2024-01-15T13:46:07;-0.60;99.90
55369;DHT22;41247;49.736;8.752;2024-01-15T13:49:47;-0.60;99.90
55369;DHT22;41247;49.736;8.752;2024-01-15T13:53:28;-0.70;99.90
55369;DHT22;41247;49.736;8.752;2024-01-15T13:57:08;-0.60;99.90
55369;DHT22;41247;49.736;8.752;2024-01-15T14:00:49;-0.60;99.90
55369;DHT22;41247;49.736;8.752;2024-01-15T14:04:30;-0.60;99.90
55369;DHT22;41247;49.736;8.752;2024-01-15T14:08:10;-0.70;99.90
55369;DHT22;41247;49.736;8.752;2024-01-15T14:11:51;-0.70;99.90
55369;DHT22;41247;49.736;8.752;2024-01-15T14:15:32;-0.70;99.90
55369;DHT22;41247;49.736;8.752;2024-01-15T14:19:12;-0.60;99.90
55369;DHT22;41247;49.736;8.752;2024-01-15T14:22:54;-0.60;99.90
55369;DHT22;41247;49.736;8.752;2024-01-15T14:26:34;-0.60;99.90
55369;DHT22;41247;49.736;8.752;2024-01-15T14:30:15;-0.60;99.90
55369;DHT22;41247;49.736;8.752;2024-01-15T14:33:56;-0.60;99.90
55369;DHT22;41247;49.736;8.752;2024-01-15T14:37:37;-0.60;99.90
55369;DHT22;41247;49.736;8.752;2024-01-15T14:41:18;-0.60;99.90
55369;DHT22;41247;49.736;8.752;2024-01-15T14:44:58;-0.50;99.90
55369;DHT22;41247;49.736;8.752;2024-01-15T14:48:39;-0.50;99.90
55369;DHT22;41247;49.736;8.752;2024-01-15T14:52:20;-0.40;99.90
55369;DHT22;41247;49.736;8.752;2024-01-15T14:56:00;-0.40;99.90
55369;DHT22;41247;49.736;8.752;2024-01-15T14:59:41;-0.40;99.90
55369;DHT22;41247;49.736;8.752;2024-01-15T15:03:22;-0.40;99.90
55369;DHT22;41247;49.736;8.752;2024-01-15T15:07:02;-0.40;99.90
55369;DHT22;41247;49.736;8.752;2024-01-15T15:10:43;-0.40;99.90
55369;DHT22;41247;49.736;8.752;2024-01-15T15:14:23;-0.40;99.90
55369;DHT22;41247;49.736;8.752;2024-01-15T15:18:04;-0.40;99.90
55369;DHT22;41247;49.736;8.752;2024-01-15T15:21:45;-0.40;99.90
55369;DHT22;41247;49.736;8.752;2024-01-15T15:25:25;-0.40;99.90
55369;DHT22;41247;49.736;8.752;2024-01-15T15:29:06;-0.40;99.90
55369;DHT22;41247;49.736;8.752;2024-01-15T15:32:47;-0.30;99.90
55369;DHT22;41247;49.736;8.752;2024-01-15T15:36:27;-0.30;99.90
55369;DHT22;41247;49.736;8.752;2024-01-15T15:40:08;-0.30;99.90
55369;DHT22;41247;49.736;8.752;2024-01-15T15:43:49;-0.30;99.90
55369;DHT22;41247;49.736;8.752;2024-01-15T15:47:30;-0.40;99.90
55369;DHT22;41247;49.736;8.752;2024-01-15T15:51:11;-0.40;99.90
55369;DHT22;41247;49.736;8.752;2024-01-15T15:54:51;-0.40;99.90
55369;DHT22;41247;49.736;8.752;2024-01-15T15:58:32;-0.50;99.90
55369;DHT22;41247;49.736;8.752;2024-01-15T16:02:13;-0.60;99.90
55369;DHT22;41247;49.736;8.752;2024-01-15T16:05:53;-0.70;99.90
55369;DHT22;41247;49.736;8.752;2024-01-15T16:09:34;-0.80;99.90
55369;DHT22;41247;49.736;8.752;2024-01-15T16:13:14;-0.80;99.90
55369;DHT22;41247;49.736;8.752;2024-01-15T16:16:55;-0.70;99.90
55369;DHT22;41247;49.736;8.752;2024-01-15T16:20:35;-0.80;99.90
55369;DHT22;41247;49.736;8.752;2024-01-15T16:24:16;-0.80;99.90
55369;DHT22;41247;49.736;8.752;2024-01-15T16:27:57;-0.80;99.90
55369;DHT22;41247;49.736;8.752;2024-01-15T16:31:38;-0.80;99.90
55369;DHT22;41247;49.736;8.752;2024-01-15T16:35:18;-0.80;99.90
55369;DHT22;41247;49.736;8.752;2024-01-15T16:39:00;-0.90;99.90
55369;DHT22;41247;49.736;8.752;2024-01-15T16:42:41;-0.90;99.90
55369;DHT22;41247;49.736;8.752;2024-01-15T16:46:22;-0.90;99.90
55369;DHT22;41247;49.736;8.752;2024-01-15T16:50:02;-0.90;99.90
55369;DHT22;41247;49.736;8.752;2024-01-15T16:53:43;-0.90;99.90
55369;DHT22;41247;49.736;8.752;2024-01-15T16:57:24;-0.90;99.90
55369;DHT22;41247;49.736;8.752;2024-01-15T17:01:05;-0.90;99.90
55369;DHT22;41247;49.736;8.752;2024-01-15T17:04:45;-0.90;99.90
55369;DHT22;41247;49.736;8.752;2024-01-15T17:08:26;-0.90;99.90
55369;DHT22;41247;49.736;8.752;2024-01-15T17:12:07;-0.90;99.90
55369;DHT22;41247;49.736;8.752;2024-01-15T17:15:47;-0.90;99.90
55369;DHT22;41247;49.736;8.752;2024-01-15T17:19:28;-0.90;99.90
55369;DHT22;41247;49.736;8.752;2024-01-15T17:23:09;-0.90;99.90
55369;DHT22;41247;49.736;8.752;2024-01-15T17:26:49;-0.90;99.90
55369;DHT22;41247;49.736;8.752;2024-01-15T17:30:30;-0.90;99.90
55369;DHT22;41247;49.736;8.752;2024-01-15T17:34:10;-0.90;99.90
55369;DHT22;41247;49.736;8.752;2024-01-15T17:37:51;-0.90;99.90
55369;DHT22;41247;49.736;8.752;2024-01-15T17:41:33;-0.90;99.90
55369;DHT22;41247;49.736;8.752;2024-01-15T17:45:14;-0.90;99.90
55369;DHT22;41247;49.736;8.752;2024-01-15T17:48:54;-0.90;99.90
55369;DHT22;41247;49.736;8.752;2024-01-15T17:52:35;-0.90;99.90
55369;DHT22;41247;49.736;8.752;2024-01-15T17:56:15;-0.90;99.90
55369;DHT22;41247;49.736;8.752;2024-01-15T17:59:56;-0.90;99.90
55369;DHT22;41247;49.736;8.752;2024-01-15T18:03:37;-0.90;99.90
55369;DHT22;41247;49.736;8.752;2024-01-15T18:07:17;-0.90;99.90
55369;DHT22;41247;49.736;8.752;2024-01-15T18:10:58;-0.80;99.90
55369;DHT22;41247;49.736;8.752;2024-01-15T18:14:38;-0.80;99.90
55369;DHT22;41247;49.736;8.752;2024-01-15T18:18:19;-0.90;99.90
55369;DHT22;41247;49.736;8.752;2024-01-15T18:22:00;-0.90;99.90
55369;DHT22;41247;49.736;8.752;2024-01-15T18:25:41;-0.80;99.90
55369;DHT22;41247;49.736;8.752;2024-01-15T18:29:22;-0.80;99.90
55369;DHT22;41247;49.736;8.752;2024-01-15T18:33:02;-0.80;99.90
55369;DHT22;41247;49.736;8.752;2024-01-15T18:36:43;-0.80;99.90
55369;DHT22;41247;49.736;8.752;2024-01-15T18:40:24;-0.80;99.90
55369;DHT22;41247;49.736;8.752;2024-01-15T18:44:04;-0.80;99.90
55369;DHT22;41247;49.736;8.752;2024-01-15T18:47:45;-0.80;99.90
55369;DHT22;41247;49.736;8.752;2024-01-15T18:51:26;-0.80;99.90
55369;DHT22;41247;49.736;8.752;2024-01-15T18:55:07;-0.80;99.90
55369;DHT22;41247;49.736;8.752;2024-01-15T18:58:47;-0.90;99.90
55369;DHT22;41247;49.736;8.752;2024-01-15T19:02:28;-0.80;99.90
55369;DHT22;41247;49.736;8.752;2024-01-15T19:06:09;-0.80;99.90
55369;DHT22;41247;49.736;8.752;2024-01-15T19:09:49;-0.80;99.90
55369;DHT22;41247;49.736;8.752;2024-01-15T19:13:30;-0.80;99.90
55369;DHT22;41247;49.736;8.752;2024-01-15T19:17:11;-0.80;99.90
55369;DHT22;41247;49.736;8.752;2024-01-15T19:20:51;-0.80;99.90
55369;DHT22;41247;49.736;8.752;2024-01-15T19:24:32;-0.80;99.90
55369;DHT22;41247;49.736;8.752;2024-01-15T19:28:12;-0.80;99.90
55369;DHT22;41247;49.736;8.752;2024-01-15T19:31:53;-0.80;99.90
55369;DHT22;41247;49.736;8.752;2024-01-15T19:35:34;-0.80;99.90
55369;DHT22;41247;49.736;8.752;2024-01-15T19:39:14;-0.80;99.90
55369;DHT22;41247;49.736;8.752;2024-01-15T19:42:55;-0.80;99.90
55369;DHT22;41247;49.736;8.752;2024-01-15T19:46:36;-0.80;99.90
55369;DHT22;41247;49.736;8.752;2024-01-15T19:50:16;-0.80;99.90
55369;DHT22;41247;49.736;8.752;2024-01-15T19:53:57;-0.80;99.90
55369;DHT22;41247;49.736;8.752;2024-01-15T19:57:38;-0.80;99.90
55369;DHT22;41247;49.736;8.752;2024-01-15T20:01:19;-0.90;99.90
55369;DHT22;41247;49.736;8.752;2024-01-15T20:05:00;-0.90;99.90
55369;DHT22;41247;49.736;8.752;2024-01-15T20:08:42;-0.90;99.90
55369;DHT22;41247;49.736;8.752;2024-01-15T20:12:25;-0.90;99.90
55369;DHT22;41247;49.736;8.752;2024-01-15T20:16:07;-0.90;99.90
55369;DHT22;41247;49.736;8.752;2024-01-15T20:19:49;-1.00;99.90
55369;DHT22;41247;49.736;8.752;2024-01-15T20:23:31;-1.00;99.90
55369;DHT22;41247;49.736;8.752;2024-01-15T20:27:12;-1.00;99.90
55369;DHT22;41247;49.736;8.752;2024-01-15T20:30:53;-1.00;99.90
55369;DHT22;41247;49.736;8.752;2024-01-15T20:34:33;-1.10;99.90
55369;DHT22;41247;49.736;8.752;2024-01-15T20:38:14;-1.20;99.90
55369;DHT22;41247;49.736;8.752;2024-01-15T20:41:54;-1.30;99.90
55369;DHT22;41247;49.736;8.752;2024-01-15T20:45:35;-1.30;99.90
55369;DHT22;41247;49.736;8.752;2024-01-15T20:49:16;-1.50;99.90
55369;DHT22;41247;49.736;8.752;2024-01-15T20:52:56;-1.50;99.90
55369;DHT22;41247;49.736;8.752;2024-01-15T20:56:37;-1.50;99.90
55369;DHT22;41247;49.736;8.752;2024-01-15T21:00:17;-1.50;99.90
55369;DHT22;41247;49.736;8.752;2024-01-15T21:03:58;-1.60;99.90
55369;DHT22;41247;49.736;8.752;2024-01-15T21:07:39;-1.60;99.90
55369;DHT22;41247;49.736;8.752;2024-01-15T21:11:20;-1.70;99.90
55369;DHT22;41247;49.736;8.752;2024-01-15T21:15:00;-1.70;99.90
55369;DHT22;41247;49.736;8.752;2024-01-15T21:18:41;-1.80;99.90
55369;DHT22;41247;49.736;8.752;2024-01-15T21:22:22;-1.80;99.90
55369;DHT22;41247;49.736;8.752;2024-01-15T21:26:02;-1.70;99.90
55369;DHT22;41247;49.736;8.752;2024-01-15T21:29:43;-1.70;99.90
55369;DHT22;41247;49.736;8.752;2024-01-15T21:33:24;-1.70;99.90
55369;DHT22;41247;49.736;8.752;2024-01-15T21:37:04;-1.60;99.90
55369;DHT22;41247;49.736;8.752;2024-01-15T21:40:45;-1.60;99.90
55369;DHT22;41247;49.736;8.752;2024-01-15T21:44:25;-1.60;99.90
55369;DHT22;41247;49.736;8.752;2024-01-15T21:48:06;-1.60;99.90
55369;DHT22;41247;49.736;8.752;2024-01-15T21:51:46;-1.60;99.90
55369;DHT22;41247;49.736;8.752;2024-01-15T21:55:27;-1.50;99.90
55369;DHT22;41247;49.736;8.752;2024-01-15T21:59:08;-1.60;99.90
55369;DHT22;41247;49.736;8.752;2024-01-15T22:02:48;-1.60;99.90
55369;DHT22;41247;49.736;8.752;2024-01-15T22:06:29;-1.60;99.90
55369;DHT22;41247;49.736;8.752;2024-01-15T22:10:10;-1.60;99.90
55369;DHT22;41247;49.736;8.752;2024-01-15T22:13:51;-1.60;99.90
55369;DHT22;41247;49.736;8.752;2024-01-15T22:17:31;-1.60;99.90
55369;DHT22;41247;49.736;8.752;2024-01-15T22:21:12;-1.60;99.90
55369;DHT22;41247;49.736;8.752;2024-01-15T22:24:53;-1.60;99.90
55369;DHT22;41247;49.736;8.752;2024-01-15T22:28:34;-1.60;99.90
55369;DHT22;41247;49.736;8.752;2024-01-15T22:32:15;-1.60;99.90
55369;DHT22;41247;49.736;8.752;2024-01-15T22:35:55;-1.60;99.90
55369;DHT22;41247;49.736;8.752;2024-01-15T22:39:36;-1.60;99.90
55369;DHT22;41247;49.736;8.752;2024-01-15T22:43:17;-1.60;99.90
55369;DHT22;41247;49.736;8.752;2024-01-15T22:46:57;-1.60;99.90
55369;DHT22;41247;49.736;8.752;2024-01-15T22:50:38;-1.60;99.90
55369;DHT22;41247;49.736;8.752;2024-01-15T22:54:18;-1.70;99.90
55369;DHT22;41247;49.736;8.752;2024-01-15T22:57:59;-1.60;99.90
55369;DHT22;41247;49.736;8.752;2024-01-15T23:01:39;-1.60;99.90
55369;DHT22;41247;49.736;8.752;2024-01-15T23:05:20;-1.70;99.90
55369;DHT22;41247;49.736;8.752;2024-01-15T23:09:01;-1.70;99.90
55369;DHT22;41247;49.736;8.752;2024-01-15T23:12:41;-1.70;99.90
55369;DHT22;41247;49.736;8.752;2024-01-15T23:16:22;-1.70;99.90
55369;DHT22;41247;49.736;8.752;2024-01-15T23:20:03;-1.70;99.90
55369;DHT22;41247;49.736;8.752;2024-01-15T23:23:44;-1.60;99.90